sensor_id;sensor_type;location;lat;lon;timestamp;temperature;humidity
12452;DHT22;6291;48.924;12.204;2023-03-13T00:02:54;4.70;99.90
12452;DHT22;6291;48.924;12.204;2023-03-13T00:07:58;4.60;99.90
12452;DHT22;6291;48.924;12.204;2023-03-13T00:13:03;3.60;99.90
12452;DHT22;6291;48.924;12.204;2023-03-13T00:18:07;4.40;99.90
12452;DHT22;6291;48.924;12.204;2023-03-13T00:23:11;4.40;99.90
12452;DHT22;6291;48.924;12.204;2023-03-13T00:28:15;4.40;99.90
12452;DHT22;6291;48.924;12.204;2023-03-13T00:33:19;4.50;99.90
12452;DHT22;6291;48.924;12.204;2023-03-13T00:38:22;4.60;99.90
12452;DHT22;6291;48.924;12.204;2023-03-13T00:43:27;4.40;99.90
12452;DHT22;6291;48.924;12.204;2023-03-13T00:48:31;4.60;99.90
12452;DHT22;6291;48.924;12.204;2023-03-13T00:53:35;4.50;99.90
12452;DHT22;6291;48.924;12.204;2023-03-13T00:58:41;4.50;99.90
12452;DHT22;6291;48.924;12.204;2023-03-13T01:03:48;4.40;99.90
12452;DHT22;6291;48.924;12.204;2023-03-13T01:08:52;5.60;99.90
12452;DHT22;6291;48.924;12.204;2023-03-13T01:13:59;4.30;99.90
12452;DHT22;6291;48.924;12.204;2023-03-13T01:19:04;4.00;99.90
12452;DHT22;6291;48.924;12.204;2023-03-13T01:24:08;4.10;99.90
12452;DHT22;6291;48.924;12.204;2023-03-13T01:29:13;4.20;99.90
12452;DHT22;6291;48.924;12.204;2023-03-13T01:34:17;4.20;99.90
12452;DHT22;6291;48.924;12.204;2023-03-13T01:39:21;6.50;99.90
12452;DHT22;6291;48.924;12.204;2023-03-13T01:44:26;4.20;99.90
12452;DHT22;6291;48.924;12.204;2023-03-13T01:49:31;4.10;99.90
12452;DHT22;6291;48.924;12.204;2023-03-13T01:54:43;4.10;99.90
12452;DHT22;6291;48.924;12.204;2023-03-13T01:59:56;4.00;99.90
12452;DHT22;6291;48.924;12.204;2023-03-13T02:05:03;4.00;99.90
12452;DHT22;6291;48.924;12.204;2023-03-13T02:10:09;4.00;99.90
12452;DHT22;6291;48.924;12.204;2023-03-13T02:15:18;3.90;99.90
12452;DHT22;6291;48.924;12.204;2023-03-13T02:20:22;3.80;99.90
12452;DHT22;6291;48.924;12.204;2023-03-13T02:25:34;3.90;99.90
12452;DHT22;6291;48.924;12.204;2023-03-13T02:30:39;3.90;99.90
12452;DHT22;6291;48.924;12.204;2023-03-13T02:35:44;3.90;99.90
12452;DHT22;6291;48.924;12.204;2023-03-13T02:40:52;3.80;99.90
12452;DHT22;6291;48.924;12.204;2023-03-13T02:46:06;3.80;99.90
12452;DHT22;6291;48.924;12.204;2023-03-13T02:51:30;3.90;99.90
12452;DHT22;6291;48.924;12.204;2023-03-13T02:56:48;4.10;99.90
12452;DHT22;6291;48.924;12.204;2023-03-13T03:01:53;3.80;99.90
12452;DHT22;6291;48.924;12.204;2023-03-13T03:06:56;3.80;99.90
12452;DHT22;6291;48.924;12.204;2023-03-13T03:12:02;3.90;99.90
12452;DHT22;6291;48.924;12.204;2023-03-13T03:17:06;3.90;99.90
12452;DHT22;6291;48.924;12.204;2023-03-13T03:22:10;3.80;99.90
12452;DHT22;6291;48.924;12.204;2023-03-13T03:27:15;3.70;99.90
12452;DHT22;6291;48.924;12.204;2023-03-13T03:32:25;3.70;99.90
12452;DHT22;6291;48.924;12.204;2023-03-13T03:37:28;3.80;99.90
12452;DHT22;6291;48.924;12.204;2023-03-13T03:42:36;3.70;99.90
12452;DHT22;6291;48.924;12.204;2023-03-13T03:47:40;3.70;99.90
12452;DHT22;6291;48.924;12.204;2023-03-13T03:52:43;3.80;99.90
12452;DHT22;6291;48.924;12.204;2023-03-13T03:57:48;3.70;99.90
12452;DHT22;6291;48.924;12.204;2023-03-13T04:03:04;3.80;99.90
12452;DHT22;6291;48.924;12.204;2023-03-13T04:08:10;4.10;99.90
12452;DHT22;6291;48.924;12.204;2023-03-13T04:13:15;3.60;99.90
12452;DHT22;6291;48.924;12.204;2023-03-13T04:18:19;3.80;99.90
12452;DHT22;6291;48.924;12.204;2023-03-13T04:23:23;3.80;99.90
12452;DHT22;6291;48.924;12.204;2023-03-13T04:28:28;7.80;99.90
12452;DHT22;6291;48.924;12.204;2023-03-13T04:33:32;4.10;99.90
12452;DHT22;6291;48.924;12.204;2023-03-13T04:39:00;4.20;99.90
12452;DHT22;6291;48.924;12.204;2023-03-13T04:44:26;3.90;99.90
12452;DHT22;6291;48.924;12.204;2023-03-13T04:49:42;3.80;99.90
12452;DHT22;6291;48.924;12.204;2023-03-13T04:55:12;3.90;99.90
12452;DHT22;6291;48.924;12.204;2023-03-13T05:00:35;3.90;99.90
12452;DHT22;6291;48.924;12.204;2023-03-13T05:06:20;4.00;99.90
12452;DHT22;6291;48.924;12.204;2023-03-13T05:11:55;3.80;99.90
12452;DHT22;6291;48.924;12.204;2023-03-13T05:17:20;3.80;99.90
12452;DHT22;6291;48.924;12.204;2023-03-13T05:22:44;3.90;99.90
12452;DHT22;6291;48.924;12.204;2023-03-13T05:28:17;4.00;99.90
12452;DHT22;6291;48.924;12.204;2023-03-13T05:33:27;1.10;99.90
12452;DHT22;6291;48.924;12.204;2023-03-13T05:38:54;4.00;99.90
12452;DHT22;6291;48.924;12.204;2023-03-13T05:44:24;4.10;99.90
12452;DHT22;6291;48.924;12.204;2023-03-13T05:49:58;4.20;99.90
12452;DHT22;6291;48.924;12.204;2023-03-13T05:55:31;4.20;99.90
12452;DHT22;6291;48.924;12.204;2023-03-13T06:00:53;4.20;99.90
12452;DHT22;6291;48.924;12.204;2023-03-13T06:06:16;4.20;99.90
12452;DHT22;6291;48.924;12.204;2023-03-13T06:11:24;4.30;99.90
12452;DHT22;6291;48.924;12.204;2023-03-13T06:16:28;4.40;99.90
12452;DHT22;6291;48.924;12.204;2023-03-13T06:21:46;4.50;99.90
12452;DHT22;6291;48.924;12.204;2023-03-13T06:26:50;4.50;99.90
12452;DHT22;6291;48.924;12.204;2023-03-13T06:31:53;4.60;99.90
12452;DHT22;6291;48.924;12.204;2023-03-13T06:36:58;4.70;99.90
12452;DHT22;6291;48.924;12.204;2023-03-13T06:42:02;4.90;99.90
12452;DHT22;6291;48.924;12.204;2023-03-13T06:47:05;4.80;99.90
12452;DHT22;6291;48.924;12.204;2023-03-13T06:52:10;4.90;99.90
12452;DHT22;6291;48.924;12.204;2023-03-13T06:57:14;5.00;99.90
12452;DHT22;6291;48.924;12.204;2023-03-13T07:02:17;5.00;99.90
12452;DHT22;6291;48.924;12.204;2023-03-13T07:07:22;5.10;99.90
12452;DHT22;6291;48.924;12.204;2023-03-13T07:12:33;5.10;99.90
12452;DHT22;6291;48.924;12.204;2023-03-13T07:17:37;5.30;99.90
12452;DHT22;6291;48.924;12.204;2023-03-13T07:22:42;5.40;99.90
12452;DHT22;6291;48.924;12.204;2023-03-13T07:27:45;7.10;99.90
12452;DHT22;6291;48.924;12.204;2023-03-13T07:32:48;7.90;99.90
12452;DHT22;6291;48.924;12.204;2023-03-13T07:37:53;7.20;99.90
12452;DHT22;6291;48.924;12.204;2023-03-13T07:42:57;7.30;99.90
12452;DHT22;6291;48.924;12.204;2023-03-13T07:48:01;7.70;99.90
12452;DHT22;6291;48.924;12.204;2023-03-13T07:53:05;7.80;99.90
12452;DHT22;6291;48.924;12.204;2023-03-13T07:58:09;5.80;99.90
12452;DHT22;6291;48.924;12.204;2023-03-13T08:03:13;5.80;99.90
12452;DHT22;6291;48.924;12.204;2023-03-13T08:08:19;6.10;99.90
12452;DHT22;6291;48.924;12.204;2023-03-13T08:13:23;6.80;99.90
12452;DHT22;6291;48.924;12.204;2023-03-13T08:18:26;6.20;99.90
12452;DHT22;6291;48.924;12.204;2023-03-13T08:23:31;8.00;91.60
12452;DHT22;6291;48.924;12.204;2023-03-13T08:28:35;8.80;1.00
12452;DHT22;6291;48.924;12.204;2023-03-13T08:33:39;6.70;39.30
12452;DHT22;6291;48.924;12.204;2023-03-13T08:38:44;7.20;1.00
12452;DHT22;6291;48.924;12.204;2023-03-13T08:43:50;7.30;1.00
12452;DHT22;6291;48.924;12.204;2023-03-13T08:48:54;7.30;1.00
12452;DHT22;6291;48.924;12.204;2023-03-13T08:54:00;7.30;1.00
12452;DHT22;6291;48.924;12.204;2023-03-13T08:59:06;7.70;1.00
12452;DHT22;6291;48.924;12.204;2023-03-13T09:04:09;8.80;99.90
12452;DHT22;6291;48.924;12.204;2023-03-13T09:09:14;9.40;1.00
12452;DHT22;6291;48.924;12.204;2023-03-13T09:14:17;10.00;1.00
12452;DHT22;6291;48.924;12.204;2023-03-13T09:19:20;10.40;1.00
12452;DHT22;6291;48.924;12.204;2023-03-13T09:24:25;10.40;99.90
12452;DHT22;6291;48.924;12.204;2023-03-13T09:29:29;10.40;99.90
12452;DHT22;6291;48.924;12.204;2023-03-13T09:34:34;10.50;99.90
12452;DHT22;6291;48.924;12.204;2023-03-13T09:39:39;10.90;99.90
12452;DHT22;6291;48.924;12.204;2023-03-13T09:44:45;11.30;99.90
12452;DHT22;6291;48.924;12.204;2023-03-13T09:49:54;11.00;78.60
12452;DHT22;6291;48.924;12.204;2023-03-13T09:55:03;10.10;90.80
12452;DHT22;6291;48.924;12.204;2023-03-13T10:00:12;10.70;99.90
12452;DHT22;6291;48.924;12.204;2023-03-13T10:05:20;10.60;1.00
12452;DHT22;6291;48.924;12.204;2023-03-13T10:10:32;10.60;1.00
12452;DHT22;6291;48.924;12.204;2023-03-13T10:15:41;10.70;1.00
12452;DHT22;6291;48.924;12.204;2023-03-13T10:20:48;10.50;1.00
12452;DHT22;6291;48.924;12.204;2023-03-13T10:25:53;10.30;1.00
12452;DHT22;6291;48.924;12.204;2023-03-13T10:31:01;10.40;99.90
12452;DHT22;6291;48.924;12.204;2023-03-13T10:36:09;10.40;99.90
12452;DHT22;6291;48.924;12.204;2023-03-13T10:41:24;13.00;99.90
12452;DHT22;6291;48.924;12.204;2023-03-13T10:46:30;10.40;99.90
12452;DHT22;6291;48.924;12.204;2023-03-13T10:51:36;10.60;99.90
12452;DHT22;6291;48.924;12.204;2023-03-13T10:56:42;10.90;1.00
12452;DHT22;6291;48.924;12.204;2023-03-13T11:01:45;10.90;1.00
12452;DHT22;6291;48.924;12.204;2023-03-13T11:06:50;11.30;99.90
12452;DHT22;6291;48.924;12.204;2023-03-13T11:12:01;11.50;99.90
12452;DHT22;6291;48.924;12.204;2023-03-13T11:17:21;11.80;99.90
12452;DHT22;6291;48.924;12.204;2023-03-13T11:22:36;12.10;99.90
12452;DHT22;6291;48.924;12.204;2023-03-13T11:27:50;12.50;99.90
12452;DHT22;6291;48.924;12.204;2023-03-13T11:33:00;13.30;4.40
12452;DHT22;6291;48.924;12.204;2023-03-13T11:38:07;14.20;1.00
12452;DHT22;6291;48.924;12.204;2023-03-13T11:43:25;14.90;1.00
12452;DHT22;6291;48.924;12.204;2023-03-13T11:54:10;14.10;1.00
12452;DHT22;6291;48.924;12.204;2023-03-13T11:59:36;13.90;1.00
12452;DHT22;6291;48.924;12.204;2023-03-13T12:04:44;10.10;1.00
12452;DHT22;6291;48.924;12.204;2023-03-13T12:09:53;13.30;1.00
12452;DHT22;6291;48.924;12.204;2023-03-13T12:15:06;13.20;1.00
12452;DHT22;6291;48.924;12.204;2023-03-13T12:20:15;13.30;1.00
12452;DHT22;6291;48.924;12.204;2023-03-13T12:25:23;12.90;30.90
12452;DHT22;6291;48.924;12.204;2023-03-13T12:30:35;13.00;22.50
12452;DHT22;6291;48.924;12.204;2023-03-13T12:35:43;13.20;63.00
12452;DHT22;6291;48.924;12.204;2023-03-13T12:40:57;12.50;99.90
12452;DHT22;6291;48.924;12.204;2023-03-13T12:46:15;13.00;1.00
12452;DHT22;6291;48.924;12.204;2023-03-13T12:51:36;13.70;1.00
12452;DHT22;6291;48.924;12.204;2023-03-13T12:56:50;14.40;1.00
12452;DHT22;6291;48.924;12.204;2023-03-13T13:01:59;15.80;1.00
12452;DHT22;6291;48.924;12.204;2023-03-13T13:07:06;17.20;1.00
12452;DHT22;6291;48.924;12.204;2023-03-13T13:12:19;18.80;1.00
12452;DHT22;6291;48.924;12.204;2023-03-13T13:23:22;17.10;1.00
12452;DHT22;6291;48.924;12.204;2023-03-13T13:28:33;17.20;1.00
12452;DHT22;6291;48.924;12.204;2023-03-13T13:33:38;18.90;1.00
12452;DHT22;6291;48.924;12.204;2023-03-13T13:38:43;19.80;99.90
12452;DHT22;6291;48.924;12.204;2023-03-13T13:43:48;18.00;1.00
12452;DHT22;6291;48.924;12.204;2023-03-13T13:49:10;18.20;1.00
12452;DHT22;6291;48.924;12.204;2023-03-13T13:54:32;18.30;99.90
12452;DHT22;6291;48.924;12.204;2023-03-13T13:59:40;18.30;1.00
12452;DHT22;6291;48.924;12.204;2023-03-13T14:04:47;17.80;1.00
12452;DHT22;6291;48.924;12.204;2023-03-13T14:10:00;19.70;99.90
12452;DHT22;6291;48.924;12.204;2023-03-13T14:15:13;20.80;99.90
12452;DHT22;6291;48.924;12.204;2023-03-13T14:20:24;21.50;99.90
12452;DHT22;6291;48.924;12.204;2023-03-13T14:25:41;22.10;99.90
12452;DHT22;6291;48.924;12.204;2023-03-13T14:30:46;21.20;99.90
12452;DHT22;6291;48.924;12.204;2023-03-13T14:35:50;20.70;99.90
12452;DHT22;6291;48.924;12.204;2023-03-13T14:40:55;20.80;99.90
12452;DHT22;6291;48.924;12.204;2023-03-13T14:45:58;19.50;99.90
12452;DHT22;6291;48.924;12.204;2023-03-13T14:51:08;18.10;99.90
12452;DHT22;6291;48.924;12.204;2023-03-13T14:56:20;18.10;99.90
12452;DHT22;6291;48.924;12.204;2023-03-13T15:01:32;18.10;99.90
12452;DHT22;6291;48.924;12.204;2023-03-13T15:06:35;17.50;99.90
12452;DHT22;6291;48.924;12.204;2023-03-13T15:11:41;18.40;99.90
12452;DHT22;6291;48.924;12.204;2023-03-13T15:16:45;19.10;99.90
12452;DHT22;6291;48.924;12.204;2023-03-13T15:21:50;19.20;99.90
12452;DHT22;6291;48.924;12.204;2023-03-13T15:26:55;18.80;99.90
12452;DHT22;6291;48.924;12.204;2023-03-13T15:31:58;18.30;99.90
12452;DHT22;6291;48.924;12.204;2023-03-13T15:37:07;16.70;99.90
12452;DHT22;6291;48.924;12.204;2023-03-13T15:42:12;16.10;1.00
12452;DHT22;6291;48.924;12.204;2023-03-13T15:47:18;15.90;1.00
12452;DHT22;6291;48.924;12.204;2023-03-13T15:52:21;15.80;1.00
12452;DHT22;6291;48.924;12.204;2023-03-13T15:57:26;15.80;1.00
12452;DHT22;6291;48.924;12.204;2023-03-13T16:02:30;16.30;1.00
12452;DHT22;6291;48.924;12.204;2023-03-13T16:07:33;17.30;1.00
12452;DHT22;6291;48.924;12.204;2023-03-13T16:12:38;16.90;1.00
12452;DHT22;6291;48.924;12.204;2023-03-13T16:17:41;16.20;1.00
12452;DHT22;6291;48.924;12.204;2023-03-13T16:22:44;15.30;1.00
12452;DHT22;6291;48.924;12.204;2023-03-13T16:27:50;14.90;1.00
12452;DHT22;6291;48.924;12.204;2023-03-13T16:32:54;14.30;1.00
12452;DHT22;6291;48.924;12.204;2023-03-13T16:37:58;14.10;1.00
12452;DHT22;6291;48.924;12.204;2023-03-13T16:43:03;13.70;1.00
12452;DHT22;6291;48.924;12.204;2023-03-13T16:48:12;13.30;1.00
12452;DHT22;6291;48.924;12.204;2023-03-13T16:53:18;13.10;1.00
12452;DHT22;6291;48.924;12.204;2023-03-13T16:58:23;13.00;1.00
12452;DHT22;6291;48.924;12.204;2023-03-13T17:03:26;12.80;1.00
12452;DHT22;6291;48.924;12.204;2023-03-13T17:08:30;12.70;1.00
12452;DHT22;6291;48.924;12.204;2023-03-13T17:13:34;12.60;1.00
12452;DHT22;6291;48.924;12.204;2023-03-13T17:18:38;12.40;1.00
12452;DHT22;6291;48.924;12.204;2023-03-13T17:23:41;12.10;1.00
12452;DHT22;6291;48.924;12.204;2023-03-13T17:28:48;11.90;1.00
12452;DHT22;6291;48.924;12.204;2023-03-13T17:33:52;11.60;99.90
12452;DHT22;6291;48.924;12.204;2023-03-13T17:38:58;11.10;99.90
12452;DHT22;6291;48.924;12.204;2023-03-13T17:44:03;11.50;99.90
12452;DHT22;6291;48.924;12.204;2023-03-13T17:49:10;11.20;99.90
12452;DHT22;6291;48.924;12.204;2023-03-13T17:54:14;11.00;99.90
12452;DHT22;6291;48.924;12.204;2023-03-13T17:59:19;10.80;1.00
12452;DHT22;6291;48.924;12.204;2023-03-13T18:04:22;10.70;99.90
12452;DHT22;6291;48.924;12.204;2023-03-13T18:09:26;10.60;1.00
12452;DHT22;6291;48.924;12.204;2023-03-13T18:14:31;10.40;1.00
12452;DHT22;6291;48.924;12.204;2023-03-13T18:19:36;10.20;1.00
12452;DHT22;6291;48.924;12.204;2023-03-13T18:24:40;10.10;1.00
12452;DHT22;6291;48.924;12.204;2023-03-13T18:29:47;10.00;1.00
12452;DHT22;6291;48.924;12.204;2023-03-13T18:34:51;9.90;99.90
12452;DHT22;6291;48.924;12.204;2023-03-13T18:39:54;9.70;1.00
12452;DHT22;6291;48.924;12.204;2023-03-13T18:44:59;9.60;1.00
12452;DHT22;6291;48.924;12.204;2023-03-13T18:50:04;9.50;93.50
12452;DHT22;6291;48.924;12.204;2023-03-13T18:55:11;9.50;99.90
12452;DHT22;6291;48.924;12.204;2023-03-13T19:00:18;9.40;1.00
12452;DHT22;6291;48.924;12.204;2023-03-13T19:05:22;9.10;99.90
12452;DHT22;6291;48.924;12.204;2023-03-13T19:10:28;8.90;1.00
12452;DHT22;6291;48.924;12.204;2023-03-13T19:15:33;8.90;99.90
12452;DHT22;6291;48.924;12.204;2023-03-13T19:20:38;8.90;1.00
12452;DHT22;6291;48.924;12.204;2023-03-13T19:25:41;8.70;1.00
12452;DHT22;6291;48.924;12.204;2023-03-13T19:30:47;8.50;99.90
12452;DHT22;6291;48.924;12.204;2023-03-13T19:35:50;9.80;1.00
12452;DHT22;6291;48.924;12.204;2023-03-13T19:40:53;8.40;1.00
12452;DHT22;6291;48.924;12.204;2023-03-13T19:45:58;8.30;1.00
12452;DHT22;6291;48.924;12.204;2023-03-13T19:51:02;8.10;1.00
12452;DHT22;6291;48.924;12.204;2023-03-13T19:56:13;8.20;1.00
12452;DHT22;6291;48.924;12.204;2023-03-13T20:01:18;8.20;99.90
12452;DHT22;6291;48.924;12.204;2023-03-13T20:06:23;8.20;99.90
12452;DHT22;6291;48.924;12.204;2023-03-13T20:11:28;8.20;58.10
12452;DHT22;6291;48.924;12.204;2023-03-13T20:16:33;8.20;1.00
12452;DHT22;6291;48.924;12.204;2023-03-13T20:21:37;8.20;1.00
12452;DHT22;6291;48.924;12.204;2023-03-13T20:26:42;8.20;99.90
12452;DHT22;6291;48.924;12.204;2023-03-13T20:31:46;8.10;99.90
12452;DHT22;6291;48.924;12.204;2023-03-13T20:36:53;8.10;1.00
12452;DHT22;6291;48.924;12.204;2023-03-13T20:41:58;8.10;1.00
12452;DHT22;6291;48.924;12.204;2023-03-13T20:47:05;8.20;99.90
12452;DHT22;6291;48.924;12.204;2023-03-13T20:52:09;8.20;49.80
12452;DHT22;6291;48.924;12.204;2023-03-13T20:57:13;8.40;1.00
12452;DHT22;6291;48.924;12.204;2023-03-13T21:02:20;8.50;99.90
12452;DHT22;6291;48.924;12.204;2023-03-13T21:07:24;8.30;1.00
12452;DHT22;6291;48.924;12.204;2023-03-13T21:12:27;8.30;1.00
12452;DHT22;6291;48.924;12.204;2023-03-13T21:17:35;8.20;99.90
12452;DHT22;6291;48.924;12.204;2023-03-13T21:22:41;8.00;1.00
12452;DHT22;6291;48.924;12.204;2023-03-13T21:27:44;8.80;99.90
12452;DHT22;6291;48.924;12.204;2023-03-13T21:32:49;8.00;50.70
12452;DHT22;6291;48.924;12.204;2023-03-13T21:37:53;8.00;1.00
12452;DHT22;6291;48.924;12.204;2023-03-13T21:42:56;7.80;1.00
12452;DHT22;6291;48.924;12.204;2023-03-13T21:48:01;7.80;1.00
12452;DHT22;6291;48.924;12.204;2023-03-13T21:53:05;8.10;1.00
12452;DHT22;6291;48.924;12.204;2023-03-13T21:58:08;8.30;99.90
12452;DHT22;6291;48.924;12.204;2023-03-13T22:03:14;8.50;99.90
12452;DHT22;6291;48.924;12.204;2023-03-13T22:08:17;8.70;28.50
12452;DHT22;6291;48.924;12.204;2023-03-13T22:13:21;8.90;1.00
12452;DHT22;6291;48.924;12.204;2023-03-13T22:18:26;9.10;1.00
12452;DHT22;6291;48.924;12.204;2023-03-13T22:23:29;9.20;1.00
12452;DHT22;6291;48.924;12.204;2023-03-13T22:28:33;9.20;1.00
12452;DHT22;6291;48.924;12.204;2023-03-13T22:33:37;9.10;1.00
12452;DHT22;6291;48.924;12.204;2023-03-13T22:38:41;9.00;1.00
12452;DHT22;6291;48.924;12.204;2023-03-13T22:43:44;9.10;1.00
12452;DHT22;6291;48.924;12.204;2023-03-13T22:48:49;9.10;1.00
12452;DHT22;6291;48.924;12.204;2023-03-13T22:53:52;9.00;1.00
12452;DHT22;6291;48.924;12.204;2023-03-13T22:58:56;8.80;23.70
12452;DHT22;6291;48.924;12.204;2023-03-13T23:04:02;8.60;99.90
12452;DHT22;6291;48.924;12.204;2023-03-13T23:09:06;8.50;1.00
12452;DHT22;6291;48.924;12.204;2023-03-13T23:14:09;8.60;1.00
12452;DHT22;6291;48.924;12.204;2023-03-13T23:19:14;8.50;99.90
12452;DHT22;6291;48.924;12.204;2023-03-13T23:24:18;8.50;1.00
12452;DHT22;6291;48.924;12.204;2023-03-13T23:29:21;8.50;99.90
12452;DHT22;6291;48.924;12.204;2023-03-13T23:34:26;8.60;1.00
12452;DHT22;6291;48.924;12.204;2023-03-13T23:39:29;8.60;99.90
12452;DHT22;6291;48.924;12.204;2023-03-13T23:44:33;8.50;99.90
12452;DHT22;6291;48.924;12.204;2023-03-13T23:49:38;8.60;1.00
12452;DHT22;6291;48.924;12.204;2023-03-13T23:54:41;8.50;1.00
12452;DHT22;6291;48.924;12.204;2023-03-13T23:59:45;8.60;99.90
